createdAt,value
2019-03-06T00:01:50.092Z,42.32
2019-03-06T00:07:50.055Z,42.17
2019-03-06T00:13:50.005Z,42.06
2019-03-06T00:19:50.056Z,42.03
2019-03-06T00:25:50.022Z,42.14
2019-03-06T00:31:50.063Z,42.10
2019-03-06T00:37:50.075Z,41.94
2019-03-06T00:43:50.044Z,41.96
2019-03-06T00:49:50.041Z,42.04
2019-03-06T00:55:50.102Z,41.90
2019-03-06T01:01:50.068Z,41.88
2019-03-06T01:07:50.093Z,41.80
2019-03-06T01:13:50.084Z,42.03
2019-03-06T01:19:50.121Z,41.99
2019-03-06T01:25:50.102Z,41.80
2019-03-06T01:31:50.115Z,41.95
2019-03-06T01:37:50.068Z,41.66
2019-03-06T01:43:50.076Z,41.98
2019-03-06T01:49:50.088Z,41.83
2019-03-06T01:55:50.105Z,41.74
2019-03-06T02:01:50.124Z,41.84
2019-03-06T02:07:50.139Z,41.59
2019-03-06T02:13:50.154Z,41.54
2019-03-06T02:19:50.155Z,41.64
2019-03-06T02:25:50.144Z,41.69
2019-03-06T02:31:50.160Z,41.66
2019-03-06T02:37:50.181Z,41.69
2019-03-06T02:43:50.169Z,41.52
2019-03-06T02:49:50.124Z,42.19
2019-03-06T02:55:50.176Z,42.15
2019-03-06T03:01:50.239Z,42.17
2019-03-06T03:07:50.183Z,41.79
2019-03-06T03:13:50.181Z,41.88
2019-03-06T03:19:50.180Z,41.82
2019-03-06T03:25:50.262Z,41.40
2019-03-06T03:31:50.201Z,41.54
2019-03-06T03:37:50.202Z,41.66
2019-03-06T03:43:50.206Z,41.71
2019-03-06T03:49:50.219Z,41.44
2019-03-06T03:55:50.216Z,41.83
2019-03-06T04:01:50.200Z,41.44
2019-03-06T04:07:50.218Z,41.62
2019-03-06T04:13:50.248Z,41.60
2019-03-06T04:19:50.235Z,41.52
2019-03-06T04:25:50.234Z,41.36
2019-03-06T04:31:50.219Z,41.57
2019-03-06T04:37:51.319Z,41.71
2019-03-06T04:43:50.308Z,41.53
2019-03-06T04:49:53.010Z,41.39
2019-03-06T04:55:50.209Z,41.51
2019-03-06T05:01:50.229Z,41.83
2019-03-06T05:07:50.276Z,41.63
2019-03-06T05:13:50.221Z,41.74
2019-03-06T05:19:50.254Z,41.74
2019-03-06T05:25:50.289Z,41.84
2019-03-06T05:31:50.246Z,41.74
2019-03-06T05:37:50.280Z,41.71
2019-03-06T05:43:50.278Z,41.61
2019-03-06T05:49:50.315Z,41.71
2019-03-06T05:55:50.261Z,41.43
2019-03-06T06:01:50.261Z,41.52
2019-03-06T06:07:50.309Z,41.53
2019-03-06T06:13:50.264Z,41.88
2019-03-06T06:19:50.275Z,41.74
2019-03-06T06:25:50.277Z,41.42
2019-03-06T06:31:50.288Z,41.89
2019-03-06T06:37:50.297Z,41.66
2019-03-06T06:43:50.335Z,41.66
2019-03-06T06:49:50.304Z,41.65
2019-03-06T06:55:50.308Z,41.46
2019-03-06T07:01:50.329Z,41.66
2019-03-06T07:07:50.337Z,41.48
2019-03-06T07:13:50.312Z,42.00
2019-03-06T07:19:50.345Z,41.53
2019-03-06T07:25:50.377Z,41.50
2019-03-06T07:31:50.383Z,41.88
2019-03-06T07:37:50.335Z,41.89
2019-03-06T07:43:50.377Z,41.88
2019-03-06T07:49:50.327Z,41.75
2019-03-06T07:55:50.372Z,41.49
2019-03-06T08:01:50.366Z,42.09
2019-03-06T08:07:50.375Z,41.97
2019-03-06T08:13:52.427Z,42.33
2019-03-06T08:19:50.350Z,41.78
2019-03-06T08:25:50.390Z,42.26
2019-03-06T08:31:51.470Z,42.21
2019-03-06T08:37:50.418Z,42.15
2019-03-06T08:43:50.381Z,42.06
2019-03-06T08:49:50.435Z,42.20
2019-03-06T08:55:50.478Z,42.19
2019-03-06T09:01:59.695Z,41.46
2019-03-06T09:07:50.494Z,42.02
2019-03-06T09:13:50.400Z,41.96
2019-03-06T09:19:50.447Z,41.49
2019-03-06T09:25:50.444Z,41.93
2019-03-06T09:31:50.432Z,41.98
2019-03-06T09:37:50.458Z,41.66
2019-03-06T09:43:50.548Z,41.38
2019-03-06T09:49:50.490Z,41.75
2019-03-06T09:55:50.456Z,41.85
2019-03-06T10:01:50.467Z,41.60
2019-03-06T10:07:50.425Z,41.56
2019-03-06T10:13:52.188Z,41.74
2019-03-06T10:19:50.451Z,41.44
2019-03-06T10:25:50.492Z,41.45
2019-03-06T10:31:50.492Z,41.69
2019-03-06T10:37:50.528Z,41.64
2019-03-06T10:43:50.499Z,42.13
2019-03-06T10:49:50.448Z,42.00
2019-03-06T10:55:50.469Z,42.01
2019-03-06T11:01:50.547Z,42.03
2019-03-06T11:07:50.478Z,42.19
2019-03-06T11:13:50.523Z,41.92
2019-03-06T11:19:50.542Z,41.95
2019-03-06T11:25:50.526Z,42.14
2019-03-06T11:31:50.519Z,41.60
2019-03-06T11:37:50.542Z,41.65
2019-03-06T11:43:51.454Z,41.93
2019-03-06T11:49:50.527Z,41.94
2019-03-06T11:55:50.561Z,41.81
2019-03-06T12:01:50.501Z,42.01
2019-03-06T12:07:50.549Z,41.93
2019-03-06T12:13:50.561Z,42.14
2019-03-06T12:19:50.564Z,42.07
2019-03-06T12:25:50.562Z,42.06
2019-03-06T12:31:50.577Z,41.69
2019-03-06T12:37:50.582Z,42.19
2019-03-06T12:43:50.591Z,42.09
2019-03-06T12:49:50.546Z,42.58
2019-03-06T12:55:50.553Z,42.58
2019-03-06T13:01:50.546Z,42.44
2019-03-06T13:07:50.561Z,42.24
2019-03-06T13:13:50.553Z,42.17
2019-03-06T13:19:50.595Z,42.03
2019-03-06T13:25:50.612Z,42.41
2019-03-06T13:31:50.737Z,42.66
2019-03-06T13:37:50.603Z,42.53
2019-03-06T13:43:50.619Z,42.51
2019-03-06T13:49:50.638Z,42.38
2019-03-06T13:55:50.596Z,42.27
2019-03-06T14:01:50.646Z,42.30
2019-03-06T14:07:56.552Z,42.39
2019-03-06T14:13:50.632Z,42.03
2019-03-06T14:19:50.599Z,40.96
2019-03-06T14:25:50.650Z,40.51
2019-03-06T14:31:50.636Z,40.63
2019-03-06T14:37:50.632Z,41.37
2019-03-06T14:43:50.650Z,41.64
2019-03-06T14:49:50.647Z,42.08
2019-03-06T14:55:50.641Z,41.43
2019-03-06T15:01:50.643Z,41.72
2019-03-06T15:07:50.689Z,42.16
2019-03-06T15:13:50.686Z,42.37
2019-03-06T15:19:50.667Z,42.64
2019-03-06T15:25:50.635Z,42.29
2019-03-06T15:31:51.568Z,42.64
2019-03-06T15:37:50.704Z,42.38
2019-03-06T15:43:50.701Z,42.94
2019-03-06T15:49:50.668Z,42.07
2019-03-06T15:55:50.701Z,42.11
2019-03-06T16:01:50.686Z,41.83
2019-03-06T16:07:50.673Z,41.95
2019-03-06T16:13:50.746Z,42.40
2019-03-06T16:19:50.679Z,42.38
2019-03-06T16:25:50.743Z,42.52
2019-03-06T16:31:50.694Z,42.43
2019-03-06T16:37:50.743Z,42.39
2019-03-06T16:43:50.744Z,42.55
2019-03-06T16:49:50.711Z,42.96
2019-03-06T16:55:50.746Z,42.66
2019-03-06T17:01:50.693Z,43.16
2019-03-06T17:07:50.732Z,43.05
2019-03-06T17:13:50.747Z,43.04
2019-03-06T17:19:50.708Z,43.10
2019-03-06T17:25:50.746Z,42.82
2019-03-06T17:31:50.752Z,43.45
2019-03-06T17:37:52.758Z,43.50
2019-03-06T17:43:50.893Z,43.04
2019-03-06T17:49:50.763Z,44.14
2019-03-06T17:55:50.751Z,43.83
2019-03-06T18:01:51.780Z,43.23
2019-03-06T18:07:54.571Z,43.79
2019-03-06T18:13:50.742Z,42.83
2019-03-06T18:19:51.840Z,43.17
2019-03-06T18:25:50.852Z,43.60
2019-03-06T18:31:50.778Z,43.50
2019-03-06T18:37:50.842Z,43.02
2019-03-06T18:43:50.824Z,43.12
2019-03-06T18:49:50.821Z,42.74
2019-03-06T18:55:50.826Z,43.06
2019-03-06T19:01:50.853Z,43.02
2019-03-06T19:07:50.808Z,43.24
2019-03-06T19:13:50.803Z,43.19
2019-03-06T19:19:50.839Z,43.73
2019-03-06T19:25:50.876Z,43.20
2019-03-06T19:34:57.591Z,43.09
2019-03-06T19:40:57.528Z,43.23
2019-03-06T19:46:57.531Z,43.57
2019-03-06T19:52:57.579Z,42.57
2019-03-06T19:58:57.578Z,43.08
2019-03-06T20:04:57.609Z,42.87
2019-03-06T20:10:57.576Z,43.13
2019-03-06T20:16:57.573Z,43.00
2019-03-06T20:22:57.635Z,43.23
2019-03-06T20:28:57.590Z,43.15
2019-03-06T20:34:57.638Z,42.53
2019-03-06T20:40:57.637Z,42.36
2019-03-06T20:46:57.600Z,42.89
2019-03-06T20:52:57.670Z,43.21
2019-03-06T20:58:57.936Z,42.06
2019-03-06T21:04:57.653Z,42.67
2019-03-06T21:10:57.642Z,43.50
2019-03-06T21:16:58.883Z,43.87
2019-03-06T21:22:57.680Z,43.30
2019-03-06T21:28:57.672Z,42.37
2019-03-06T21:34:57.683Z,42.68
2019-03-06T21:40:57.721Z,42.77
2019-03-06T21:46:57.695Z,42.76
2019-03-06T21:52:57.708Z,42.92
2019-03-06T21:58:57.722Z,43.27
2019-03-06T22:04:57.675Z,43.15
2019-03-06T22:10:57.661Z,42.97
2019-03-06T22:16:57.732Z,43.03
2019-03-06T22:22:57.726Z,42.83
2019-03-06T22:28:57.685Z,43.52
2019-03-06T22:34:57.704Z,42.91
2019-03-06T22:40:57.746Z,42.67
2019-03-06T22:46:57.757Z,42.19
2019-03-06T22:52:57.685Z,42.04
2019-03-06T22:58:57.713Z,42.12
2019-03-06T23:04:57.761Z,41.95
2019-03-06T23:10:57.755Z,42.04
2019-03-06T23:16:57.725Z,42.27
2019-03-06T23:22:57.772Z,42.06
2019-03-06T23:28:57.716Z,42.21
2019-03-06T23:34:57.726Z,41.85
2019-03-06T23:40:57.825Z,42.27
2019-03-06T23:46:57.756Z,41.85
2019-03-06T23:52:57.810Z,42.33
2019-03-06T23:58:57.877Z,41.96
